Time;durP1;ratioP1;P1;durP2;ratioP2;P2;SDS_P1;SDS_P2;PMS_P1;PMS_P2;Temp;Humidity;BMP_temperature;BMP_pressure;BME280_temperature;BME280_humidity;BME280_pressure;Samples;Min_cycle;Max_cycle;Signal;HPM_P1;HPM_P2
2023/12/07 00:02:19;;;;;;;60.20;27.17;;;;;;;4.28;94.46;93542.16;5063242;28;20029;-82
2023/12/07 00:04:44;;;;;;;57.97;23.98;;;;;;;4.35;94.57;93553.16;5064949;28;20060;-83
2023/12/07 00:07:09;;;;;;;58.58;26.85;;;;;;;4.37;94.35;93549.16;5064944;28;20024;-81
2023/12/07 00:09:35;;;;;;;58.70;26.25;;;;;;;4.41;93.87;93555.44;5063832;28;20047;-83
2023/12/07 00:12:00;;;;;;;55.20;25.08;;;;;;;4.43;94.08;93560.44;5064249;28;20363;-83
2023/12/07 00:14:26;;;;;;;48.95;23.63;;;;;;;4.43;93.63;93555.16;5063872;28;20032;-82
2023/12/07 00:16:52;;;;;;;53.95;24.65;;;;;;;4.41;93.47;93552.03;5064589;28;20029;-83
2023/12/07 00:19:17;;;;;;;58.42;25.35;;;;;;;4.41;93.41;93547.53;5064932;28;20327;-83
2023/12/07 00:21:43;;;;;;;61.08;26.23;;;;;;;4.41;93.38;93552.81;5064752;28;20082;-83
2023/12/07 00:24:08;;;;;;;55.20;23.92;;;;;;;4.38;93.34;93549.97;5063447;28;20048;-83
2023/12/07 00:26:34;;;;;;;54.33;24.27;;;;;;;4.41;93.68;93558.09;5063313;28;20100;-84
2023/12/07 00:28:59;;;;;;;54.40;25.45;;;;;;;4.47;93.72;93558.81;5063409;28;20063;-83
2023/12/07 00:31:24;;;;;;;57.90;25.35;;;;;;;4.51;93.50;93561.69;5064344;28;20051;-81
2023/12/07 00:33:50;;;;;;;51.58;25.55;;;;;;;4.52;92.93;93564.06;5063973;28;20056;-81
2023/12/07 00:36:16;;;;;;;54.35;26.33;;;;;;;4.52;93.00;93552.69;5063503;28;20025;-81
2023/12/07 00:38:41;;;;;;;54.92;24.45;;;;;;;4.56;93.54;93548.41;5062756;28;20064;-80
2023/12/07 00:41:07;;;;;;;53.03;26.27;;;;;;;4.61;93.54;93557.06;5064231;28;20052;-80
2023/12/07 00:43:32;;;;;;;60.67;25.73;;;;;;;4.70;93.36;93551.16;5063986;28;20033;-80
2023/12/07 00:45:58;;;;;;;55.55;26.08;;;;;;;4.80;92.61;93554.47;5064114;28;20323;-81
2023/12/07 00:48:23;;;;;;;51.35;24.75;;;;;;;4.89;92.45;93551.19;5063071;28;20041;-81
2023/12/07 00:50:49;;;;;;;53.40;23.48;;;;;;;4.92;91.84;93556.66;5063830;28;20045;-81
2023/12/07 00:53:14;;;;;;;56.03;24.85;;;;;;;4.99;91.20;93549.19;5063654;28;20342;-80
2023/12/07 00:55:40;;;;;;;48.95;24.67;;;;;;;5.07;91.09;93552.25;5063278;28;20422;-81
2023/12/07 00:58:06;;;;;;;50.10;24.10;;;;;;;5.15;90.44;93538.41;5062394;28;20286;-81
2023/12/07 01:00:31;;;;;;;49.08;23.42;;;;;;;5.22;90.83;93544.13;5063765;28;20055;-81
2023/12/07 01:02:56;;;;;;;48.53;25.02;;;;;;;5.32;90.12;93541.31;5062503;28;20039;-81
2023/12/07 01:05:22;;;;;;;53.00;23.85;;;;;;;5.38;89.60;93537.53;5063528;28;20043;-81
2023/12/07 01:07:47;;;;;;;56.28;25.63;;;;;;;5.45;88.96;93531.09;5063698;28;20504;-82
2023/12/07 01:10:13;;;;;;;56.97;26.70;;;;;;;5.47;88.70;93529.72;5063697;28;20377;-82
2023/12/07 01:12:39;;;;;;;52.35;26.60;;;;;;;5.52;88.17;93531.53;5062444;28;20032;-82
2023/12/07 01:15:05;;;;;;;54.10;26.35;;;;;;;5.56;87.70;93537.81;5063619;28;20224;-82
2023/12/07 01:17:30;;;;;;;51.40;24.95;;;;;;;5.59;87.46;93531.91;5062356;28;20024;-82
2023/12/07 01:19:56;;;;;;;52.58;25.60;;;;;;;5.60;87.38;93544.84;5063327;28;20201;-81
2023/12/07 01:22:21;;;;;;;53.75;25.00;;;;;;;5.57;87.45;93529.56;5062939;28;20025;-81
2023/12/07 01:24:48;;;;;;;54.42;25.00;;;;;;;5.58;87.35;93535.66;5063028;28;20055;-81
2023/12/07 01:27:13;;;;;;;46.38;23.98;;;;;;;5.57;87.11;93534.06;5062911;28;20028;-81
2023/12/07 01:29:38;;;;;;;53.70;23.85;;;;;;;5.55;87.03;93529.06;5062496;28;20219;-80
2023/12/07 01:32:07;;;;;;;51.65;24.95;;;;;;;5.58;87.34;93536.44;5061828;28;20274;-80
2023/12/07 01:35:19;;;;;;;54.88;24.45;;;;;;;5.57;87.32;93534.06;5061891;28;20032;-80
2023/12/07 01:37:45;;;;;;;56.80;25.45;;;;;;;5.59;87.23;93527.41;5043266;28;20231;-83
2023/12/07 01:40:11;;;;;;;54.47;25.42;;;;;;;5.57;87.07;93520.84;5063347;28;20024;-82
2023/12/07 01:42:37;;;;;;;53.83;25.88;;;;;;;5.58;87.41;93530.38;5063175;28;20025;-83
2023/12/07 01:45:05;;;;;;;54.75;26.42;;;;;;;5.61;87.25;93527.13;5063072;28;20029;-82
2023/12/07 01:47:31;;;;;;;53.92;24.80;;;;;;;5.60;87.13;93522.94;5063142;28;20037;-82
2023/12/07 01:49:57;;;;;;;53.47;25.48;;;;;;;5.65;87.26;93530.75;5061861;28;20021;-81
2023/12/07 01:52:25;;;;;;;53.55;25.63;;;;;;;5.60;86.96;93526.34;5062691;28;20211;-81
2023/12/07 01:54:50;;;;;;;51.13;22.80;;;;;;;5.58;86.52;93525.84;5062525;28;20020;-82
2023/12/07 01:57:16;;;;;;;47.20;22.27;;;;;;;5.49;86.51;93532.09;5062998;28;20052;-83
2023/12/07 01:59:42;;;;;;;49.50;23.73;;;;;;;5.37;87.06;93529.88;5062958;28;20067;-83
2023/12/07 02:02:07;;;;;;;49.97;21.63;;;;;;;5.29;87.22;93531.34;5063037;28;20243;-83
2023/12/07 02:04:34;;;;;;;42.10;20.83;;;;;;;5.18;87.81;93521.97;5063015;28;20307;-83
2023/12/07 02:07:01;;;;;;;40.60;20.05;;;;;;;5.15;88.74;93530.47;5063316;28;20315;-83
2023/12/07 02:09:27;;;;;;;41.08;20.08;;;;;;;5.13;88.68;93529.97;5063117;28;20024;-81
2023/12/07 02:11:52;;;;;;;39.75;20.80;;;;;;;5.12;88.92;93523.13;5062961;28;20024;-81
2023/12/07 02:14:18;;;;;;;38.85;20.58;;;;;;;5.13;88.76;93519.41;5062866;28;20021;-82
2023/12/07 02:16:50;;;;;;;36.22;18.50;;;;;;;5.15;88.68;93518.06;5062841;28;20082;-81
2023/12/07 02:19:30;;;;;;;37.28;18.33;;;;;;;5.21;88.58;93518.75;5062796;28;20017;-81
2023/12/07 02:22:07;;;;;;;38.30;18.80;;;;;;;5.22;88.54;93517.69;5062812;28;20063;-81
2023/12/07 02:24:37;;;;;;;36.05;18.92;;;;;;;5.25;88.18;93517.13;5062743;28;20033;-81
2023/12/07 02:27:03;;;;;;;37.55;19.92;;;;;;;5.26;88.32;93508.13;5062964;28;20028;-82
2023/12/07 02:29:28;;;;;;;35.85;18.60;;;;;;;5.32;88.13;93516.75;5063243;28;20021;-82
2023/12/07 02:31:53;;;;;;;38.47;18.92;;;;;;;5.39;87.83;93515.31;5063405;28;20377;-83
2023/12/07 02:34:19;;;;;;;37.97;18.95;;;;;;;5.41;87.58;93505.25;5062974;28;20349;-83
2023/12/07 02:36:48;;;;;;;41.42;19.23;;;;;;;5.41;87.39;93504.44;5062973;28;20066;-82
2023/12/07 02:39:14;;;;;;;38.05;19.25;;;;;;;5.43;86.95;93512.88;5061410;28;20071;-82
2023/12/07 02:41:40;;;;;;;35.75;18.48;;;;;;;5.46;87.03;93503.59;5065737;28;20072;-82
2023/12/07 02:44:07;;;;;;;40.83;18.20;;;;;;;5.48;86.65;93509.38;5066300;28;20024;-82
2023/12/07 02:46:33;;;;;;;37.50;18.38;;;;;;;5.45;86.43;93500.16;5066445;28;20017;-82
2023/12/07 02:48:59;;;;;;;42.47;19.30;;;;;;;5.48;86.15;93504.09;5067113;28;20193;-82
2023/12/07 02:51:24;;;;;;;39.67;18.65;;;;;;;5.43;86.67;93511.03;5065174;28;20023;-82
2023/12/07 02:53:50;;;;;;;41.92;18.83;;;;;;;5.35;86.83;93506.41;5064924;28;20024;-82
2023/12/07 02:56:15;;;;;;;37.72;19.77;;;;;;;5.28;87.11;93505.97;5065804;28;20021;-82
2023/12/07 02:58:41;;;;;;;41.10;19.95;;;;;;;5.18;87.48;93508.78;5066623;28;20114;-82
2023/12/07 03:01:07;;;;;;;41.33;20.00;;;;;;;5.09;88.20;93499.91;5066374;28;20271;-83
2023/12/07 03:03:33;;;;;;;43.05;20.42;;;;;;;5.08;88.70;93499.13;5065914;28;20084;-83
2023/12/07 03:05:58;;;;;;;37.92;19.50;;;;;;;5.09;88.95;93507.84;5065854;28;20020;-83
2023/12/07 03:08:24;;;;;;;44.17;20.58;;;;;;;5.08;88.78;93506.28;5066237;28;20254;-83
2023/12/07 03:10:49;;;;;;;44.47;21.67;;;;;;;5.06;89.13;93508.44;5065948;28;20021;-83
2023/12/07 03:13:15;;;;;;;44.08;20.42;;;;;;;5.07;89.29;93512.63;5064573;28;20013;-83
2023/12/07 03:15:41;;;;;;;43.33;21.05;;;;;;;5.14;89.28;93526.28;5065873;28;20047;-83
2023/12/07 03:18:07;;;;;;;47.60;21.83;;;;;;;5.17;89.36;93515.13;5065543;28;20017;-83
2023/12/07 03:20:32;;;;;;;44.97;21.77;;;;;;;5.20;89.33;93517.19;5064285;28;20029;-83
2023/12/07 03:22:58;;;;;;;46.97;23.17;;;;;;;5.23;89.09;93525.34;5064554;28;20040;-83
2023/12/07 03:25:24;;;;;;;48.22;21.83;;;;;;;5.27;89.42;93530.84;5065812;28;20227;-83
2023/12/07 03:27:50;;;;;;;43.03;21.38;;;;;;;5.25;89.02;93532.19;5065531;28;20032;-83
2023/12/07 03:30:15;;;;;;;39.20;19.40;;;;;;;5.25;88.95;93534.81;5065471;28;20312;-83
2023/12/07 03:32:41;;;;;;;44.70;20.13;;;;;;;5.24;89.22;93544.63;5065331;28;20048;-83
2023/12/07 03:35:06;;;;;;;44.55;20.60;;;;;;;5.22;88.99;93539.63;5065225;28;20320;-82
2023/12/07 03:37:32;;;;;;;47.22;19.80;;;;;;;5.26;88.71;93539.06;5063645;28;20056;-82
2023/12/07 03:39:57;;;;;;;33.25;16.88;;;;;;;5.22;88.22;93534.31;5065111;28;20048;-82
2023/12/07 03:42:23;;;;;;;35.55;18.48;;;;;;;5.25;87.95;93543.56;5064882;28;20033;-82
2023/12/07 03:44:48;;;;;;;47.13;20.90;;;;;;;5.26;87.99;93544.34;5063876;28;20028;-81
2023/12/07 03:47:14;;;;;;;39.08;19.05;;;;;;;5.25;87.76;93538.28;5065174;28;20053;-82
2023/12/07 03:49:41;;;;;;;38.15;18.10;;;;;;;5.27;87.91;93530.84;5064821;28;20380;-82
2023/12/07 03:52:06;;;;;;;33.85;16.83;;;;;;;5.30;87.41;93535.53;5064340;28;20025;-82
2023/12/07 03:54:32;;;;;;;38.45;19.60;;;;;;;5.29;87.53;93534.00;5065032;28;20032;-83
2023/12/07 03:56:58;;;;;;;37.25;18.15;;;;;;;5.31;87.74;93526.56;5064850;28;20112;-84
2023/12/07 03:59:23;;;;;;;35.25;17.15;;;;;;;5.32;87.75;93528.09;5065179;28;20078;-85
2023/12/07 04:01:48;;;;;;;39.67;18.80;;;;;;;5.34;87.56;93528.59;5063678;28;20114;-84
2023/12/07 04:04:14;;;;;;;36.70;18.20;;;;;;;5.36;87.35;93533.63;5064840;28;20025;-84
2023/12/07 04:06:40;;;;;;;38.97;18.02;;;;;;;5.35;87.10;93527.56;5064608;28;20096;-83
2023/12/07 04:09:07;;;;;;;35.15;18.65;;;;;;;5.36;87.29;93526.47;5064414;28;20297;-82
2023/12/07 04:11:32;;;;;;;38.75;19.02;;;;;;;5.37;87.09;93525.41;5064527;28;20060;-82
2023/12/07 04:13:58;;;;;;;33.00;17.70;;;;;;;5.38;86.86;93529.59;5064532;28;20028;-82
2023/12/07 04:16:23;;;;;;;33.45;16.67;;;;;;;5.33;86.90;93527.06;5064104;28;20024;-81
2023/12/07 04:18:49;;;;;;;36.10;17.08;;;;;;;5.26;86.97;93526.63;5064224;28;20234;-81
2023/12/07 04:21:14;;;;;;;33.58;16.83;;;;;;;5.15;87.30;93536.56;5063970;28;20028;-82
2023/12/07 04:23:40;;;;;;;28.38;14.52;;;;;;;5.09;87.53;93543.00;5064115;28;20307;-82
2023/12/07 04:26:05;;;;;;;34.15;15.38;;;;;;;5.06;87.55;93548.06;5063322;28;20028;-82
2023/12/07 04:28:31;;;;;;;34.42;15.82;;;;;;;5.02;87.78;93553.13;5064328;28;20024;-81
2023/12/07 04:30:56;;;;;;;29.15;15.23;;;;;;;4.92;88.06;93551.38;5064038;28;20032;-82
2023/12/07 04:33:22;;;;;;;27.02;13.68;;;;;;;4.85;88.49;93560.75;5063847;28;20086;-82
2023/12/07 04:35:47;;;;;;;29.95;14.77;;;;;;;4.75;88.94;93559.03;5064332;28;20048;-83
2023/12/07 04:38:13;;;;;;;29.42;14.65;;;;;;;4.72;89.38;93557.75;5064068;28;20025;-83
2023/12/07 04:40:38;;;;;;;30.20;14.90;;;;;;;4.69;89.65;93568.84;5064238;28;20036;-83
2023/12/07 04:43:04;;;;;;;26.85;13.82;;;;;;;4.66;89.90;93566.78;5064312;28;20048;-83
2023/12/07 04:45:29;;;;;;;26.83;14.68;;;;;;;4.68;90.00;93561.22;5064152;28;20021;-82
2023/12/07 04:47:57;;;;;;;25.52;13.00;;;;;;;4.70;89.88;93561.72;5064397;28;20365;-83
2023/12/07 04:50:22;;;;;;;27.42;14.95;;;;;;;4.67;89.82;93563.06;5063848;28;20028;-83
2023/12/07 04:52:51;;;;;;;23.52;11.95;;;;;;;4.66;90.00;93566.78;5063828;28;20017;-83
2023/12/07 04:55:16;;;;;;;26.67;12.82;;;;;;;4.69;89.95;93563.56;5062885;28;20013;-83
2023/12/07 04:57:41;;;;;;;22.77;11.90;;;;;;;4.66;89.97;93563.34;5063820;28;20291;-83
2023/12/07 05:00:09;;;;;;;29.48;14.05;;;;;;;4.67;90.32;93559.66;5063912;28;20035;-83
2023/12/07 05:02:35;;;;;;;26.50;13.98;;;;;;;4.74;89.96;93570.63;5063630;28;20032;-83
2023/12/07 05:05:01;;;;;;;20.98;12.27;;;;;;;4.80;89.35;93567.69;5062734;28;20025;-83
2023/12/07 05:07:26;;;;;;;25.83;13.07;;;;;;;4.81;88.95;93571.09;5063459;28;20024;-83
2023/12/07 05:09:52;;;;;;;21.90;12.45;;;;;;;4.87;88.98;93569.97;5063562;28;20021;-83
2023/12/07 05:12:17;;;;;;;22.20;12.15;;;;;;;4.87;88.68;93574.47;5062631;28;20021;-83
2023/12/07 05:14:43;;;;;;;26.50;14.50;;;;;;;4.92;88.79;93580.44;5063287;28;20358;-83
2023/12/07 05:17:08;;;;;;;26.60;14.02;;;;;;;4.96;88.80;93578.03;5063507;28;20025;-83
2023/12/07 05:19:34;;;;;;;29.60;16.08;;;;;;;5.00;88.86;93585.09;5063671;28;20059;-83
2023/12/07 05:22:00;;;;;;;32.78;15.85;;;;;;;5.07;89.08;93578.66;5063203;28;20020;-83
2023/12/07 05:24:25;;;;;;;29.75;15.02;;;;;;;5.11;88.73;93579.66;5062347;28;20021;-83
2023/12/07 05:26:51;;;;;;;24.77;14.23;;;;;;;5.14;88.27;93574.59;5063522;28;20235;-82
2023/12/07 05:29:17;;;;;;;25.88;14.25;;;;;;;5.14;88.24;93595.75;5063527;28;20055;-82
2023/12/07 05:31:43;;;;;;;25.08;14.82;;;;;;;5.14;88.01;93592.31;5063376;28;20040;-81
2023/12/07 05:34:09;;;;;;;26.40;13.82;;;;;;;5.14;88.05;93594.97;5063299;28;20071;-80
2023/12/07 05:36:34;;;;;;;28.83;13.85;;;;;;;5.09;88.20;93593.19;5063131;28;20016;-81
2023/12/07 05:39:00;;;;;;;32.95;15.02;;;;;;;5.13;88.02;93599.47;5063040;28;20013;-82
2023/12/07 05:41:25;;;;;;;32.85;14.38;;;;;;;5.08;88.10;93596.09;5063506;28;20331;-81
2023/12/07 05:43:52;;;;;;;24.00;13.98;;;;;;;5.05;88.14;93596.66;5063336;28;20040;-82
2023/12/07 05:46:18;;;;;;;39.60;17.02;;;;;;;5.04;87.91;93595.88;5062908;28;20024;-81
2023/12/07 05:48:44;;;;;;;26.77;15.30;;;;;;;5.05;87.91;93594.00;5062808;28;20027;-81
2023/12/07 05:51:14;;;;;;;32.53;16.27;;;;;;;5.01;88.39;93596.47;5062408;28;20218;-80
2023/12/07 05:53:42;;;;;;;31.15;15.20;;;;;;;5.01;88.40;93599.88;5062683;28;20017;-81
2023/12/07 05:56:08;;;;;;;30.92;15.85;;;;;;;5.03;88.75;93599.59;5062412;28;20025;-81
2023/12/07 05:58:34;;;;;;;27.77;15.40;;;;;;;5.02;88.67;93590.09;5062488;28;20025;-82
2023/12/07 06:01:01;;;;;;;28.05;14.23;;;;;;;5.03;88.49;93596.97;5062872;28;20028;-81
2023/12/07 06:03:27;;;;;;;26.15;13.35;;;;;;;5.02;88.55;93600.66;5062738;28;20032;-82
2023/12/07 06:05:52;;;;;;;25.45;12.57;;;;;;;5.06;88.48;93606.16;5062826;28;20322;-82
2023/12/07 06:08:18;;;;;;;25.67;13.88;;;;;;;5.05;88.44;93610.66;5062695;28;20368;-82
2023/12/07 06:10:43;;;;;;;28.75;15.57;;;;;;;5.07;88.37;93603.25;5061599;28;20021;-82
2023/12/07 06:13:09;;;;;;;30.55;15.90;;;;;;;5.11;88.49;93611.38;5062744;28;20024;-81
2023/12/07 06:15:34;;;;;;;31.05;16.02;;;;;;;5.14;88.59;93606.31;5063986;28;20058;-82
2023/12/07 06:18:00;;;;;;;32.90;15.93;;;;;;;5.20;88.66;93602.53;5066718;28;20070;-82
2023/12/07 06:20:26;;;;;;;28.23;15.48;;;;;;;5.24;88.29;93608.03;5065360;28;20028;-84
2023/12/07 06:22:52;;;;;;;28.30;15.75;;;;;;;5.23;88.47;93614.38;5066251;28;20035;-82
2023/12/07 06:25:17;;;;;;;27.48;12.98;;;;;;;5.21;87.64;93616.53;5066206;28;20028;-81
2023/12/07 06:27:43;;;;;;;24.92;13.73;;;;;;;5.15;87.64;93618.47;5066242;28;20016;-82
2023/12/07 06:30:10;;;;;;;28.02;14.75;;;;;;;5.17;87.97;93618.97;5066420;28;20115;-82
2023/12/07 06:32:36;;;;;;;27.90;15.35;;;;;;;5.20;87.74;93620.25;5066361;28;20250;-81
2023/12/07 06:35:04;;;;;;;30.38;15.48;;;;;;;5.19;87.90;93618.66;5066157;28;20330;-81
2023/12/07 06:37:30;;;;;;;30.77;14.70;;;;;;;5.27;88.02;93625.97;5065993;28;20027;-82
2023/12/07 06:39:55;;;;;;;30.40;15.38;;;;;;;5.36;87.86;93618.97;5066062;28;20297;-80
2023/12/07 06:42:21;;;;;;;25.85;14.73;;;;;;;5.42;87.24;93625.75;5065833;28;20043;-84
2023/12/07 06:44:49;;;;;;;29.77;14.05;;;;;;;5.48;87.16;93628.34;5066296;28;20025;-84
2023/12/07 06:47:15;;;;;;;29.20;14.57;;;;;;;5.58;86.59;93628.19;5066396;28;20039;-84
2023/12/07 06:49:40;;;;;;;25.33;11.27;;;;;;;5.61;85.27;93630.25;5066492;28;20025;-78
2023/12/07 06:52:06;;;;;;;22.73;11.40;;;;;;;5.57;84.40;93627.38;5065460;28;20330;-79
2023/12/07 06:54:31;;;;;;;22.45;12.65;;;;;;;5.51;84.50;93631.16;5065625;28;20024;-85
2023/12/07 06:56:56;;;;;;;22.80;12.40;;;;;;;5.46;85.27;93636.53;5066185;28;20440;-82
2023/12/07 06:59:22;;;;;;;26.23;13.77;;;;;;;5.43;86.07;93639.75;5066196;28;20029;-81
2023/12/07 07:01:48;;;;;;;26.98;14.05;;;;;;;5.42;86.73;93630.25;5066059;28;20184;-84
2023/12/07 07:04:14;;;;;;;25.42;12.25;;;;;;;5.43;86.77;93635.25;5067214;28;20028;-91
2023/12/07 07:06:43;;;;;;;22.08;11.00;;;;;;;5.43;86.90;93631.81;5067222;28;20025;-93
2023/12/07 07:09:08;;;;;;;22.80;12.73;;;;;;;5.44;86.84;93630.75;5066069;28;20029;-86
2023/12/07 07:11:36;;;;;;;24.33;13.02;;;;;;;5.45;86.90;93648.19;5067622;28;20110;-89
2023/12/07 07:14:02;;;;;;;27.80;13.10;;;;;;;5.37;87.32;93636.41;5067239;28;20035;-89
2023/12/07 07:16:28;;;;;;;22.20;12.52;;;;;;;5.32;87.50;93644.41;5066235;28;20052;-82
2023/12/07 07:18:53;;;;;;;26.02;13.55;;;;;;;5.30;88.08;93651.81;5064358;28;20388;-86
2023/12/07 07:21:22;;;;;;;25.88;13.25;;;;;;;5.27;88.10;93635.75;5065663;28;20040;-87
2023/12/07 07:23:47;;;;;;;20.45;12.32;;;;;;;5.32;87.68;93636.47;5065898;28;20294;-86
2023/12/07 07:26:16;;;;;;;26.25;13.38;;;;;;;5.25;87.68;93638.69;5064127;28;20029;-86
2023/12/07 07:28:42;;;;;;;24.90;11.98;;;;;;;5.13;87.48;93641.75;5064567;28;20025;-86
2023/12/07 07:31:08;;;;;;;28.42;12.73;;;;;;;5.02;88.47;93642.91;5064501;28;20033;-87
2023/12/07 07:33:34;;;;;;;26.70;12.10;;;;;;;4.98;88.70;93640.06;5063957;28;20214;-87
2023/12/07 07:35:59;;;;;;;27.77;13.00;;;;;;;4.98;88.88;93653.25;5064712;28;20123;-87
2023/12/07 07:38:25;;;;;;;24.00;12.85;;;;;;;5.01;89.54;93649.28;5065968;28;20032;-90
2023/12/07 07:40:51;;;;;;;29.92;13.05;;;;;;;5.07;88.96;93650.81;5066040;28;20025;-84
2023/12/07 07:43:16;;;;;;;25.20;12.82;;;;;;;5.10;88.02;93652.09;5065310;28;20040;-84
2023/12/07 07:45:42;;;;;;;23.33;11.52;;;;;;;5.07;88.27;93663.19;5065974;28;20256;-85
2023/12/07 07:48:07;;;;;;;17.60;8.25;;;;;;;4.96;87.43;93668.59;5065337;28;20070;-90
2023/12/07 07:50:36;;;;;;;19.20;9.50;;;;;;;4.91;88.17;93660.75;5065686;28;20029;-89
2023/12/07 07:53:02;;;;;;;18.33;9.57;;;;;;;4.89;88.25;93667.41;5064524;28;20314;-88
2023/12/07 07:55:27;;;;;;;21.85;11.02;;;;;;;4.77;89.21;93662.50;5065734;28;20077;-88
2023/12/07 07:57:53;;;;;;;22.30;11.10;;;;;;;4.70;90.13;93662.03;5065446;28;20330;-88
2023/12/07 08:00:19;;;;;;;24.95;11.75;;;;;;;4.67;91.04;93678.44;5064963;28;20367;-90
2023/12/07 08:02:48;;;;;;;27.08;11.05;;;;;;;4.54;91.28;93669.31;5065286;28;20346;-89
2023/12/07 08:05:14;;;;;;;17.92;9.15;;;;;;;4.43;91.31;93679.19;5064216;28;20024;-82
2023/12/07 08:07:40;;;;;;;22.02;9.10;;;;;;;4.36;91.59;93676.13;5064418;28;20028;-84
2023/12/07 08:10:06;;;;;;;21.08;9.20;;;;;;;4.30;91.46;93685.91;5063876;28;20029;-83
2023/12/07 08:12:33;;;;;;;32.38;13.60;;;;;;;4.24;92.02;93689.66;5063808;28;20013;-85
2023/12/07 08:14:58;;;;;;;32.22;12.50;;;;;;;4.07;92.27;93692.72;5061979;28;20028;-71
2023/12/07 08:17:26;;;;;;;27.10;12.00;;;;;;;4.04;92.78;93685.34;5063130;28;20052;-71
2023/12/07 08:19:51;;;;;;;16.92;9.38;;;;;;;3.99;93.17;93691.44;5062681;28;20025;-72
2023/12/07 08:22:17;;;;;;;22.10;8.73;;;;;;;3.96;93.97;93694.63;5063176;28;20021;-71
2023/12/07 08:24:43;;;;;;;17.38;8.68;;;;;;;3.96;94.32;93702.53;5062291;28;20230;-71
2023/12/07 08:27:08;;;;;;;13.07;7.53;;;;;;;3.75;93.63;93693.22;5063577;28;20228;-71
2023/12/07 08:29:34;;;;;;;13.82;6.07;;;;;;;3.67;94.10;93699.84;5063247;28;20017;-71
2023/12/07 08:31:59;;;;;;;11.20;6.10;;;;;;;3.57;94.27;93702.53;5063526;28;20017;-71
2023/12/07 08:34:26;;;;;;;14.60;6.88;;;;;;;3.45;94.51;93710.78;5063503;28;20331;-71
2023/12/07 08:36:51;;;;;;;11.68;6.22;;;;;;;3.39;95.16;93702.09;5063186;28;20078;-71
2023/12/07 08:39:17;;;;;;;19.38;6.15;;;;;;;3.49;95.52;93708.38;5063046;28;20084;-71
2023/12/07 08:41:42;;;;;;;13.45;7.05;;;;;;;3.53;94.08;93719.97;5063158;28;20028;-71
2023/12/07 08:44:08;;;;;;;10.25;5.63;;;;;;;3.51;93.70;93711.53;5061972;28;20041;-73
2023/12/07 08:46:33;;;;;;;9.55;5.65;;;;;;;3.41;92.95;93712.38;5063172;28;20215;-73
2023/12/07 08:48:59;;;;;;;11.80;6.38;;;;;;;3.35;93.34;93722.13;5063021;28;20070;-79
2023/12/07 08:51:24;;;;;;;14.38;6.68;;;;;;;3.33;94.56;93721.63;5063253;28;20032;-73
2023/12/07 08:53:51;;;;;;;8.75;5.20;;;;;;;3.35;94.97;93722.13;5063469;28;20040;-78
2023/12/07 08:56:18;;;;;;;9.32;5.05;;;;;;;3.30;93.81;93719.53;5062923;28;20029;-81
2023/12/07 08:58:44;;;;;;;10.50;4.95;;;;;;;3.23;94.26;93713.78;5063459;28;20055;-83
2023/12/07 09:01:11;;;;;;;10.43;5.43;;;;;;;3.32;94.88;93720.06;5063120;28;20033;-76
2023/12/07 09:03:37;;;;;;;11.40;4.50;;;;;;;3.34;94.37;93717.94;5062795;28;20311;-74
2023/12/07 09:06:03;;;;;;;6.18;3.67;;;;;;;3.13;94.19;93729.63;5062659;28;20032;-75
2023/12/07 09:08:28;;;;;;;8.18;3.80;;;;;;;3.02;93.83;93713.06;5063140;28;20036;-75
2023/12/07 09:10:54;;;;;;;6.43;3.60;;;;;;;3.01;94.45;93720.19;5063027;28;20025;-77
2023/12/07 09:13:19;;;;;;;6.15;3.20;;;;;;;3.01;95.36;93719.38;5062892;28;20248;-77
2023/12/07 09:15:45;;;;;;;4.93;2.78;;;;;;;2.96;94.90;93722.81;5062553;28;20304;-77
2023/12/07 09:18:11;;;;;;;6.18;2.90;;;;;;;2.81;94.71;93726.31;5062977;28;20043;-76
2023/12/07 09:20:37;;;;;;;6.05;3.30;;;;;;;2.85;95.49;93728.38;5062874;28;20030;-76
2023/12/07 09:23:04;;;;;;;3.65;1.95;;;;;;;2.85;94.40;93723.13;5062698;28;20305;-75
2023/12/07 09:25:30;;;;;;;4.03;2.15;;;;;;;2.79;93.55;93719.72;5062836;28;20035;-76
2023/12/07 09:27:56;;;;;;;4.90;2.38;;;;;;;2.77;93.95;93725.25;5063069;28;20216;-76
2023/12/07 09:30:22;;;;;;;5.70;2.85;;;;;;;2.80;93.96;93722.06;5063005;28;20047;-77
2023/12/07 09:32:47;;;;;;;4.70;2.58;;;;;;;2.71;94.43;93717.66;5062776;28;20017;-76
2023/12/07 09:35:19;;;;;;;5.07;2.47;;;;;;;2.69;93.42;93725.03;5063259;28;20025;-77
2023/12/07 09:37:45;;;;;;;2.95;1.80;;;;;;;2.56;93.38;93723.72;5062586;28;20020;-74
2023/12/07 09:40:22;;;;;;;4.38;2.10;;;;;;;2.51;93.76;93719.25;5062604;28;20208;-73
2023/12/07 09:42:48;;;;;;;5.53;1.73;;;;;;;2.52;92.90;93720.81;5062409;28;20025;-74
2023/12/07 09:45:19;;;;;;;2.67;1.65;;;;;;;2.48;93.51;93714.50;5061441;28;20106;-75
2023/12/07 09:48:02;;;;;;;3.38;1.73;;;;;;;2.38;93.94;93719.78;5062780;28;20025;-75
2023/12/07 09:50:28;;;;;;;6.30;2.53;;;;;;;2.49;94.87;93729.25;5064156;28;20075;-75
2023/12/07 09:52:56;;;;;;;1.98;1.33;;;;;;;2.45;93.25;93720.31;5067018;28;20323;-75
2023/12/07 09:55:22;;;;;;;7.43;1.73;;;;;;;2.39;93.28;93730.03;5066621;28;20021;-75
2023/12/07 09:57:49;;;;;;;2.47;1.25;;;;;;;2.35;92.62;93725.59;5066624;28;20147;-75
2023/12/07 10:00:16;;;;;;;3.53;1.35;;;;;;;2.38;93.06;93714.53;5066513;28;20021;-75
2023/12/07 10:02:45;;;;;;;3.25;1.77;;;;;;;2.39;93.07;93721.38;5065054;28;20047;-76
2023/12/07 10:05:16;;;;;;;2.70;1.63;;;;;;;2.31;93.33;93727.16;5066379;28;20028;-75
2023/12/07 10:07:43;;;;;;;1.67;0.85;;;;;;;2.13;91.94;93733.75;5066280;28;20025;-75
2023/12/07 10:10:16;;;;;;;1.88;0.80;;;;;;;1.97;92.09;93728.50;5066565;28;20025;-75
2023/12/07 10:12:47;;;;;;;1.83;0.95;;;;;;;2.06;92.88;93735.84;5066537;28;20065;-74
2023/12/07 10:15:14;;;;;;;1.98;1.08;;;;;;;1.89;93.03;93733.47;5066357;28;20029;-74
2023/12/07 10:17:52;;;;;;;3.28;1.25;;;;;;;1.85;93.70;93721.91;5066678;28;20025;-74
2023/12/07 10:20:23;;;;;;;1.88;1.20;;;;;;;1.76;94.16;93735.56;5063591;28;20021;-74
2023/12/07 10:23:00;;;;;;;2.08;0.98;;;;;;;1.69;94.73;93723.72;5065007;28;20048;-75
2023/12/07 10:25:26;;;;;;;2.00;1.17;;;;;;;1.70;95.11;93731.34;5064984;28;20097;-75
2023/12/07 10:27:51;;;;;;;2.00;1.13;;;;;;;1.68;95.23;93727.41;5064815;28;20048;-75
2023/12/07 10:30:24;;;;;;;4.18;1.52;;;;;;;1.73;95.52;93725.56;5065237;28;20051;-75
2023/12/07 10:32:50;;;;;;;;;;;;;;;1.74;95.86;93732.41;5065874;28;20029;-75
2023/12/07 10:35:16;;;;;;;5.78;1.52;;;;;;;1.74;96.14;93727.13;5066131;28;19912;-75
2023/12/07 10:37:42;;;;;;;3.53;1.13;;;;;;;1.72;95.76;93734.50;5066052;28;20028;-75
2023/12/07 10:40:08;;;;;;;6.10;1.60;;;;;;;1.61;95.25;93725.03;5064982;28;20029;-75
2023/12/07 10:42:36;;;;;;;3.13;1.58;;;;;;;1.49;95.86;93725.25;5066216;28;20103;-75
2023/12/07 10:45:05;;;;;;;5.07;1.92;;;;;;;1.38;95.48;93719.19;5066030;28;20024;-75
2023/12/07 10:47:34;;;;;;;4.05;1.60;;;;;;;1.35;96.00;93722.34;5065536;28;20029;-77
2023/12/07 10:50:02;;;;;;;4.43;2.22;;;;;;;1.37;96.42;93727.34;5065948;28;20055;-75
2023/12/07 10:52:32;;;;;;;4.53;1.60;;;;;;;1.31;96.46;93726.53;5066128;28;20023;-75
2023/12/07 10:55:13;;;;;;;3.28;1.02;;;;;;;1.29;96.87;93727.84;5066100;28;20047;-75
2023/12/07 10:57:39;;;;;;;3.35;1.13;;;;;;;1.29;96.60;93736.50;5065660;28;20094;-75
2023/12/07 11:00:07;;;;;;;2.80;1.13;;;;;;;1.37;96.71;93725.50;5065826;28;20044;-75
2023/12/07 11:02:34;;;;;;;2.95;1.40;;;;;;;1.36;96.70;93721.31;5065681;28;20029;-75
2023/12/07 11:05:00;;;;;;;1.73;0.90;;;;;;;1.31;95.86;93723.91;5065871;28;20021;-75
2023/12/07 11:07:36;;;;;;;1.30;0.80;;;;;;;1.23;95.42;93724.41;5065781;28;20071;-75
2023/12/07 11:10:15;;;;;;;1.98;1.17;;;;;;;1.23;95.56;93721.78;5065621;28;20224;-75
2023/12/07 11:12:49;;;;;;;1.48;1.00;;;;;;;1.27;96.33;93725.47;5065625;28;20017;-75
2023/12/07 11:15:16;;;;;;;1.63;0.80;;;;;;;1.23;95.58;93728.88;5065251;28;20039;-75
2023/12/07 11:17:55;;;;;;;0.80;0.50;;;;;;;1.26;95.36;93742.25;5064363;28;20025;-75
2023/12/07 11:20:39;;;;;;;1.35;0.80;;;;;;;1.19;95.45;93731.22;5065106;28;20263;-74
2023/12/07 11:23:05;;;;;;;1.05;0.55;;;;;;;1.24;96.00;93723.34;5063739;28;20025;-75
2023/12/07 11:25:30;;;;;;;1.15;0.70;;;;;;;1.21;95.62;93726.50;5065025;28;20029;-75
2023/12/07 11:28:03;;;;;;;0.82;0.57;;;;;;;1.21;95.10;93729.13;5065454;28;20029;-75